createdAt,value
2023-03-04T00:01:55.898Z,4.27
2023-03-04T00:05:58.050Z,4.23
2023-03-04T00:10:00.198Z,4.21
2023-03-04T00:14:02.381Z,4.18
2023-03-04T00:18:04.803Z,3.93
2023-03-04T00:22:07.140Z,3.90
2023-03-04T00:26:09.778Z,3.79
2023-03-04T00:30:13.454Z,3.68
2023-03-04T00:34:15.668Z,3.74
2023-03-04T00:38:17.995Z,3.73
2023-03-04T00:42:20.173Z,3.53
2023-03-04T00:46:22.360Z,3.67
2023-03-04T00:50:24.888Z,3.71
2023-03-04T00:54:27.431Z,3.73
2023-03-04T00:58:29.707Z,3.70
2023-03-04T01:02:31.973Z,3.65
2023-03-04T01:06:34.222Z,3.56
2023-03-04T01:10:36.385Z,3.48
2023-03-04T01:14:38.545Z,3.48
2023-03-04T01:18:41.088Z,3.47
2023-03-04T01:22:44.250Z,3.42
2023-03-04T01:26:46.380Z,3.16
2023-03-04T01:30:49.676Z,3.23
2023-03-04T01:34:52.244Z,3.01
2023-03-04T01:38:54.532Z,2.81
2023-03-04T01:42:56.787Z,2.86
2023-03-04T01:46:59.408Z,3.05
2023-03-04T01:51:04.379Z,3.09
2023-03-04T01:55:16.001Z,3.09
2023-03-04T01:59:27.334Z,3.15
2023-03-04T02:03:33.125Z,3.14
2023-03-04T02:07:42.361Z,3.20
2023-03-04T02:11:47.698Z,3.18
2023-03-04T02:15:49.870Z,3.14
2023-03-04T02:20:09.662Z,3.12
2023-03-04T02:24:20.037Z,3.06
2023-03-04T02:28:22.317Z,3.36
2023-03-04T02:32:24.650Z,3.16
2023-03-04T02:36:28.084Z,3.16
2023-03-04T02:40:33.573Z,3.36
2023-03-04T02:44:40.260Z,3.82
2023-03-04T02:48:42.568Z,3.37
2023-03-04T02:52:44.707Z,3.40
2023-03-04T02:56:50.311Z,3.29
2023-03-04T03:00:53.082Z,3.43
2023-03-04T03:04:55.784Z,3.39
2023-03-04T03:09:01.202Z,3.40
2023-03-04T03:13:05.099Z,3.63
2023-03-04T03:17:07.377Z,4.20
2023-03-04T03:21:10.204Z,4.41
2023-03-04T03:25:14.494Z,4.59
2023-03-04T03:29:16.606Z,4.61
2023-03-04T03:33:18.856Z,4.39
2023-03-04T03:37:21.202Z,4.50
2023-03-04T03:41:23.453Z,4.80
2023-03-04T03:45:25.570Z,4.10
2023-03-04T03:49:27.797Z,3.75
2023-03-04T03:53:30.051Z,3.67
2023-03-04T03:57:32.509Z,3.66
2023-03-04T04:01:34.816Z,3.58
2023-03-04T04:05:37.285Z,3.78
2023-03-04T04:09:39.632Z,3.86
2023-03-04T04:13:41.879Z,3.75
2023-03-04T04:17:44.475Z,3.75
2023-03-04T04:21:47.404Z,3.73
2023-03-04T04:25:49.561Z,3.39
2023-03-04T04:29:51.762Z,3.32
2023-03-04T04:33:53.959Z,3.31
2023-03-04T04:37:56.119Z,3.33
2023-03-04T04:41:58.288Z,3.31
2023-03-04T04:46:02.591Z,3.29
2023-03-04T04:50:07.205Z,3.48
2023-03-04T04:54:10.460Z,3.48
2023-03-04T04:58:16.473Z,3.32
2023-03-04T05:02:18.736Z,3.55
2023-03-04T05:06:22.745Z,3.93
2023-03-04T05:10:24.942Z,4.23
2023-03-04T05:14:27.123Z,4.21
2023-03-04T05:18:29.638Z,4.52
2023-03-04T05:22:32.028Z,4.85
2023-03-04T05:26:34.309Z,5.27
2023-03-04T05:30:36.539Z,5.42
2023-03-04T05:34:38.727Z,5.46
2023-03-04T05:38:41.013Z,5.46
2023-03-04T05:42:43.103Z,5.62
2023-03-04T05:46:45.394Z,5.59
2023-03-04T05:50:48.206Z,5.69
2023-03-04T05:54:50.425Z,5.79
2023-03-04T05:58:52.710Z,5.79
2023-03-04T06:02:55.154Z,5.87
2023-03-04T06:06:57.452Z,5.89
2023-03-04T06:10:59.746Z,5.92
2023-03-04T06:19:46.350Z,5.90
2023-03-04T06:23:48.890Z,5.77
2023-03-04T06:27:51.376Z,5.75
2023-03-04T06:31:54.195Z,5.77
2023-03-04T06:35:57.539Z,5.79
2023-03-04T06:39:59.701Z,6.09
2023-03-04T06:44:01.934Z,6.42
2023-03-04T06:48:04.188Z,6.61
2023-03-04T06:52:06.379Z,6.77
2023-03-04T06:56:11.240Z,6.86
2023-03-04T07:00:14.640Z,6.96
2023-03-04T07:04:17.074Z,7.07
2023-03-04T07:08:21.665Z,7.15
2023-03-04T07:12:24.378Z,7.21
2023-03-04T07:16:26.613Z,7.32
2023-03-04T07:20:31.619Z,7.45
2023-03-04T07:24:34.454Z,7.53
2023-03-04T07:28:36.842Z,7.57
2023-03-04T07:32:39.306Z,7.72
2023-03-04T07:36:42.233Z,7.90
2023-03-04T07:40:44.461Z,8.00
2023-03-04T07:44:49.002Z,8.06
2023-03-04T07:48:51.336Z,8.17
2023-03-04T07:52:53.895Z,8.30
2023-03-04T07:56:56.477Z,8.47
2023-03-04T08:01:09.515Z,8.58
2023-03-04T08:05:12.467Z,8.59
2023-03-04T08:09:15.914Z,8.64
2023-03-04T08:13:18.047Z,8.70
2023-03-04T08:17:20.654Z,8.83
2023-03-04T08:21:25.033Z,8.98
2023-03-04T08:25:27.585Z,9.01
2023-03-04T08:29:30.075Z,9.33
2023-03-04T08:33:33.815Z,9.35
2023-03-04T08:37:35.909Z,9.39
2023-03-04T08:41:38.419Z,9.62
2023-03-04T08:45:40.854Z,9.71
2023-03-04T08:49:43.184Z,9.79
2023-03-04T08:53:47.329Z,9.76
2023-03-04T08:57:49.969Z,9.78
2023-03-04T09:01:52.580Z,9.84
2023-03-04T09:05:55.188Z,9.91
2023-03-04T09:09:57.576Z,10.00
2023-03-04T09:14:10.703Z,9.99
2023-03-04T09:18:15.123Z,10.18
2023-03-04T09:22:17.394Z,10.16
2023-03-04T09:26:23.242Z,10.13
2023-03-04T09:30:26.642Z,10.21
2023-03-04T09:34:30.405Z,10.29
2023-03-04T09:38:32.740Z,10.37
2023-03-04T09:42:47.531Z,10.50
2023-03-04T09:46:51.447Z,10.60
2023-03-04T09:51:23.566Z,10.69
2023-03-04T09:55:35.057Z,10.73
2023-03-04T09:59:46.826Z,10.90
2023-03-04T10:03:58.537Z,10.94
2023-03-04T10:08:15.763Z,11.19
2023-03-04T10:12:25.065Z,11.18
2023-03-04T10:16:36.765Z,11.19
2023-03-04T10:21:22.344Z,11.19
2023-03-04T10:25:31.392Z,11.33
2023-03-04T10:29:34.362Z,11.38
2023-03-04T10:33:39.631Z,11.47
2023-03-04T10:37:51.183Z,11.44
2023-03-04T10:41:57.216Z,11.56
2023-03-04T10:45:59.591Z,11.62
2023-03-04T10:50:05.033Z,11.70
2023-03-04T10:54:22.208Z,11.80
2023-03-04T10:58:24.273Z,11.99
2023-03-04T11:02:37.277Z,11.88
2023-03-04T11:06:42.901Z,12.17
2023-03-04T11:10:46.969Z,12.31
2023-03-04T11:14:54.150Z,12.37
2023-03-04T11:19:04.049Z,12.48
2023-03-04T11:23:14.109Z,12.62
2023-03-04T11:27:21.130Z,12.69
2023-03-04T11:31:39.704Z,12.72
2023-03-04T11:36:05.365Z,12.68
2023-03-04T11:40:25.517Z,12.77
2023-03-04T11:44:27.727Z,12.93
2023-03-04T11:49:31.119Z,12.81
2023-03-04T11:54:23.984Z,12.90
2023-03-04T11:59:37.289Z,12.90
2023-03-04T12:03:59.152Z,13.05
2023-03-04T12:08:01.895Z,13.20
2023-03-04T12:12:34.464Z,13.20
2023-03-04T12:16:53.417Z,13.16
2023-03-04T12:21:49.208Z,13.19
2023-03-04T12:26:11.831Z,13.23
2023-03-04T12:35:48.591Z,13.24
2023-03-04T12:40:12.716Z,13.42
2023-03-04T12:44:24.643Z,13.26
2023-03-04T12:48:45.126Z,13.31
2023-03-04T12:53:31.949Z,13.51
2023-03-04T12:58:05.997Z,13.63
2023-03-04T13:02:55.845Z,13.53
2023-03-04T13:12:07.226Z,13.44
2023-03-04T13:16:44.020Z,13.61
2023-03-04T13:21:06.071Z,13.76
2023-03-04T13:25:35.036Z,13.70
2023-03-04T13:29:38.836Z,13.79
2023-03-04T13:34:31.055Z,13.88
2023-03-04T13:38:54.715Z,13.84
2023-03-04T13:43:31.371Z,13.63
2023-03-04T13:47:45.952Z,13.66
2023-03-04T13:51:51.168Z,13.72
2023-03-04T13:56:26.894Z,13.61
2023-03-04T14:05:01.863Z,13.66
2023-03-04T14:13:49.783Z,13.58
2023-03-04T14:17:56.977Z,13.60
2023-03-04T14:22:46.192Z,13.65
2023-03-04T14:36:04.235Z,13.61
2023-03-04T14:40:09.811Z,13.68
2023-03-04T14:44:23.570Z,13.73
2023-03-04T14:48:34.240Z,13.59
2023-03-04T14:52:55.170Z,13.55
2023-03-04T14:57:27.928Z,13.44
2023-03-04T15:06:53.945Z,13.48
2023-03-04T15:11:06.188Z,13.47
2023-03-04T15:15:39.994Z,13.40
2023-03-04T15:19:44.164Z,13.33
2023-03-04T15:24:22.808Z,13.18
2023-03-04T15:28:45.996Z,13.18
2023-03-04T15:32:56.834Z,13.21
2023-03-04T15:37:04.864Z,13.13
2023-03-04T15:41:22.040Z,12.94
2023-03-04T15:45:52.367Z,12.94
2023-03-04T15:49:59.341Z,13.06
2023-03-04T15:58:23.671Z,13.01
2023-03-04T16:02:37.143Z,12.92
2023-03-04T16:07:02.888Z,12.95
2023-03-04T16:11:09.497Z,12.89
2023-03-04T16:15:19.250Z,12.85
2023-03-04T16:19:33.014Z,12.90
2023-03-04T16:23:42.646Z,12.76
2023-03-04T16:32:42.398Z,12.63
2023-03-04T16:37:01.639Z,12.42
2023-03-04T16:45:49.502Z,12.00
2023-03-04T16:50:03.007Z,11.76
2023-03-04T16:54:21.874Z,11.46
2023-03-04T16:58:58.529Z,11.12
2023-03-04T17:03:20.065Z,10.77
2023-03-04T17:07:57.415Z,10.50
2023-03-04T17:12:12.480Z,10.32
2023-03-04T17:17:07.523Z,10.14
2023-03-04T17:21:29.437Z,10.00
2023-03-04T18:04:15.123Z,8.80
2023-03-04T18:08:23.954Z,8.79
2023-03-04T18:12:27.288Z,8.69
2023-03-04T18:16:31.274Z,8.63
2023-03-04T18:20:34.423Z,8.48
2023-03-04T18:24:43.631Z,8.55
2023-03-04T18:28:49.619Z,8.42
2023-03-04T18:33:00.387Z,8.33
2023-03-04T18:37:04.179Z,8.31
2023-03-04T18:41:14.945Z,8.25
2023-03-04T18:45:18.850Z,8.27
2023-03-04T18:49:23.201Z,8.14
2023-03-04T18:53:28.544Z,8.03
2023-03-04T18:57:36.320Z,7.68
2023-03-04T19:01:41.678Z,7.44
2023-03-04T19:05:45.578Z,7.22
2023-03-04T19:09:49.870Z,7.29
2023-03-04T19:13:57.296Z,7.25
2023-03-04T19:18:08.792Z,7.34
2023-03-04T19:22:18.411Z,7.05
2023-03-04T19:26:24.300Z,7.12
2023-03-04T19:30:50.106Z,7.26
2023-03-04T19:34:57.370Z,7.17
2023-03-04T19:39:01.787Z,7.11
2023-03-04T19:43:05.188Z,6.92
2023-03-04T19:47:08.350Z,6.90
2023-03-04T19:51:17.275Z,6.98
2023-03-04T19:55:30.968Z,6.57
2023-03-04T19:59:42.337Z,6.48
2023-03-04T20:03:58.472Z,6.14
2023-03-04T20:08:04.037Z,5.74
2023-03-04T20:12:07.382Z,5.52
2023-03-04T20:16:13.409Z,5.07
2023-03-04T20:20:17.083Z,4.92
2023-03-04T20:24:21.405Z,4.97
2023-03-04T20:28:25.045Z,4.72
2023-03-04T20:32:29.271Z,4.64
2023-03-04T20:36:32.702Z,4.74
2023-03-04T20:40:37.001Z,4.47
2023-03-04T20:44:40.209Z,4.51
2023-03-04T20:48:43.693Z,4.55
2023-03-04T20:52:48.644Z,4.57
2023-03-04T20:56:52.201Z,4.44
2023-03-04T21:00:55.116Z,4.33
2023-03-04T21:04:57.940Z,4.33
2023-03-04T21:09:04.748Z,4.15
2023-03-04T21:13:16.926Z,3.91
2023-03-04T21:22:05.398Z,3.82
2023-03-04T21:26:11.688Z,3.54
2023-03-04T21:30:19.516Z,3.45
2023-03-04T21:34:41.963Z,3.36
2023-03-04T21:38:47.192Z,3.37
2023-03-04T21:42:55.005Z,3.27
2023-03-04T21:47:01.405Z,3.16
2023-03-04T21:51:07.512Z,3.24
2023-03-04T21:55:11.406Z,3.01
2023-03-04T21:59:15.537Z,3.01
2023-03-04T22:03:21.926Z,3.04
2023-03-04T22:07:25.511Z,2.99
2023-03-04T22:11:30.295Z,2.92
2023-03-04T22:15:33.529Z,2.87
2023-03-04T22:19:36.210Z,2.84
2023-03-04T22:23:42.556Z,2.87
2023-03-04T22:27:45.776Z,2.80
2023-03-04T22:31:48.984Z,2.61
2023-03-04T22:35:53.357Z,2.68
2023-03-04T22:39:57.455Z,2.64
2023-03-04T22:44:01.265Z,2.74
2023-03-04T22:48:04.571Z,2.66
2023-03-04T22:52:08.173Z,2.56
2023-03-04T22:56:15.784Z,2.52
2023-03-04T23:00:25.206Z,2.44
2023-03-04T23:04:28.378Z,2.46
2023-03-04T23:08:31.481Z,2.40
2023-03-04T23:12:35.928Z,2.41
2023-03-04T23:16:43.405Z,2.32
2023-03-04T23:20:46.643Z,2.07
2023-03-04T23:24:50.336Z,2.02
2023-03-04T23:28:56.093Z,1.97
2023-03-04T23:32:59.183Z,1.93
2023-03-04T23:37:02.098Z,1.93
2023-03-04T23:41:05.267Z,1.85
2023-03-04T23:45:09.360Z,1.69
2023-03-04T23:49:14.435Z,1.69
2023-03-04T23:53:18.770Z,1.69
2023-03-04T23:57:21.614Z,1.70
